sensor_id;sensor_type;location;lat;lon;timestamp;P1;durP1;ratioP1;P2;durP2;ratioP2
18820;SDS011;9539;59.332;18.034;2023-04-24T00:01:20;5.32;;;4.20;;
18820;SDS011;9539;59.332;18.034;2023-04-24T00:03:42;7.43;;;4.78;;
18820;SDS011;9539;59.332;18.034;2023-04-24T00:06:05;5.30;;;3.92;;
18820;SDS011;9539;59.332;18.034;2023-04-24T00:08:28;6.10;;;3.78;;
18820;SDS011;9539;59.332;18.034;2023-04-24T00:10:49;6.45;;;4.47;;
18820;SDS011;9539;59.332;18.034;2023-04-24T00:13:12;5.55;;;3.97;;
18820;SDS011;9539;59.332;18.034;2023-04-24T00:15:34;6.20;;;4.13;;
18820;SDS011;9539;59.332;18.034;2023-04-24T00:17:55;7.38;;;4.00;;
18820;SDS011;9539;59.332;18.034;2023-04-24T00:20:17;6.30;;;4.03;;
18820;SDS011;9539;59.332;18.034;2023-04-24T00:22:40;6.38;;;4.00;;
18820;SDS011;9539;59.332;18.034;2023-04-24T00:25:02;6.60;;;4.30;;
18820;SDS011;9539;59.332;18.034;2023-04-24T00:27:24;6.07;;;4.32;;
18820;SDS011;9539;59.332;18.034;2023-04-24T00:29:45;5.97;;;4.10;;
18820;SDS011;9539;59.332;18.034;2023-04-24T00:32:07;7.35;;;4.07;;
18820;SDS011;9539;59.332;18.034;2023-04-24T00:34:29;7.43;;;4.20;;
18820;SDS011;9539;59.332;18.034;2023-04-24T00:36:52;5.85;;;4.38;;
18820;SDS011;9539;59.332;18.034;2023-04-24T00:39:16;6.18;;;4.03;;
18820;SDS011;9539;59.332;18.034;2023-04-24T00:41:37;7.97;;;4.03;;
18820;SDS011;9539;59.332;18.034;2023-04-24T00:43:59;7.22;;;4.75;;
18820;SDS011;9539;59.332;18.034;2023-04-24T00:46:21;7.57;;;4.68;;
18820;SDS011;9539;59.332;18.034;2023-04-24T00:48:43;7.95;;;4.72;;
18820;SDS011;9539;59.332;18.034;2023-04-24T00:51:05;7.55;;;4.60;;
18820;SDS011;9539;59.332;18.034;2023-04-24T00:53:26;6.85;;;4.05;;
18820;SDS011;9539;59.332;18.034;2023-04-24T00:55:49;7.47;;;4.00;;
18820;SDS011;9539;59.332;18.034;2023-04-24T00:58:12;6.28;;;3.83;;
18820;SDS011;9539;59.332;18.034;2023-04-24T01:00:33;7.75;;;4.22;;
18820;SDS011;9539;59.332;18.034;2023-04-24T01:02:55;8.38;;;4.65;;
18820;SDS011;9539;59.332;18.034;2023-04-24T01:05:19;10.80;;;5.45;;
18820;SDS011;9539;59.332;18.034;2023-04-24T01:07:41;8.13;;;4.70;;
18820;SDS011;9539;59.332;18.034;2023-04-24T01:10:05;9.43;;;4.60;;
18820;SDS011;9539;59.332;18.034;2023-04-24T01:12:29;9.40;;;4.32;;
18820;SDS011;9539;59.332;18.034;2023-04-24T01:14:51;8.30;;;4.88;;
18820;SDS011;9539;59.332;18.034;2023-04-24T01:17:13;10.25;;;5.13;;
18820;SDS011;9539;59.332;18.034;2023-04-24T01:19:35;9.38;;;4.80;;
18820;SDS011;9539;59.332;18.034;2023-04-24T01:21:58;9.13;;;4.85;;
18820;SDS011;9539;59.332;18.034;2023-04-24T01:24:21;8.43;;;4.78;;
18820;SDS011;9539;59.332;18.034;2023-04-24T01:26:42;10.32;;;5.40;;
18820;SDS011;9539;59.332;18.034;2023-04-24T01:29:04;10.23;;;5.25;;
18820;SDS011;9539;59.332;18.034;2023-04-24T01:31:26;9.45;;;5.45;;
18820;SDS011;9539;59.332;18.034;2023-04-24T01:33:48;14.82;;;5.93;;
18820;SDS011;9539;59.332;18.034;2023-04-24T01:36:10;10.27;;;5.60;;
18820;SDS011;9539;59.332;18.034;2023-04-24T01:38:32;11.63;;;5.60;;
18820;SDS011;9539;59.332;18.034;2023-04-24T01:40:55;10.15;;;5.47;;
18820;SDS011;9539;59.332;18.034;2023-04-24T01:43:17;9.00;;;4.85;;
18820;SDS011;9539;59.332;18.034;2023-04-24T01:45:38;9.98;;;5.10;;
18820;SDS011;9539;59.332;18.034;2023-04-24T01:48:00;10.38;;;5.03;;
18820;SDS011;9539;59.332;18.034;2023-04-24T01:50:22;9.20;;;5.00;;
18820;SDS011;9539;59.332;18.034;2023-04-24T01:52:43;11.25;;;5.35;;
18820;SDS011;9539;59.332;18.034;2023-04-24T01:55:06;9.70;;;5.40;;
18820;SDS011;9539;59.332;18.034;2023-04-24T01:57:29;12.50;;;5.75;;
18820;SDS011;9539;59.332;18.034;2023-04-24T01:59:51;10.80;;;4.88;;
18820;SDS011;9539;59.332;18.034;2023-04-24T02:02:13;10.98;;;5.35;;
18820;SDS011;9539;59.332;18.034;2023-04-24T02:04:34;11.98;;;5.50;;
18820;SDS011;9539;59.332;18.034;2023-04-24T02:06:56;12.05;;;5.07;;
18820;SDS011;9539;59.332;18.034;2023-04-24T02:09:17;10.63;;;4.95;;
18820;SDS011;9539;59.332;18.034;2023-04-24T02:11:39;10.45;;;4.85;;
18820;SDS011;9539;59.332;18.034;2023-04-24T02:14:02;11.32;;;4.75;;
18820;SDS011;9539;59.332;18.034;2023-04-24T02:16:24;9.45;;;4.68;;
18820;SDS011;9539;59.332;18.034;2023-04-24T02:18:46;9.52;;;4.75;;
18820;SDS011;9539;59.332;18.034;2023-04-24T02:21:07;7.00;;;3.80;;
18820;SDS011;9539;59.332;18.034;2023-04-24T02:23:29;8.38;;;4.07;;
18820;SDS011;9539;59.332;18.034;2023-04-24T02:25:51;6.10;;;3.55;;
18820;SDS011;9539;59.332;18.034;2023-04-24T02:28:13;7.07;;;3.67;;
18820;SDS011;9539;59.332;18.034;2023-04-24T02:30:36;7.68;;;3.60;;
18820;SDS011;9539;59.332;18.034;2023-04-24T02:32:58;10.50;;;3.00;;
18820;SDS011;9539;59.332;18.034;2023-04-24T02:35:19;6.88;;;3.40;;
18820;SDS011;9539;59.332;18.034;2023-04-24T02:37:41;8.93;;;3.55;;
18820;SDS011;9539;59.332;18.034;2023-04-24T02:40:03;7.63;;;3.90;;
18820;SDS011;9539;59.332;18.034;2023-04-24T02:42:26;8.23;;;3.75;;
18820;SDS011;9539;59.332;18.034;2023-04-24T02:44:47;9.70;;;3.92;;
18820;SDS011;9539;59.332;18.034;2023-04-24T02:47:12;11.93;;;3.65;;
18820;SDS011;9539;59.332;18.034;2023-04-24T02:49:33;9.05;;;3.97;;
18820;SDS011;9539;59.332;18.034;2023-04-24T02:51:55;12.60;;;4.20;;
18820;SDS011;9539;59.332;18.034;2023-04-24T02:54:17;10.82;;;4.35;;
18820;SDS011;9539;59.332;18.034;2023-04-24T02:56:38;11.05;;;4.13;;
18820;SDS011;9539;59.332;18.034;2023-04-24T02:59:00;15.13;;;5.22;;
18820;SDS011;9539;59.332;18.034;2023-04-24T03:01:21;11.23;;;4.65;;
18820;SDS011;9539;59.332;18.034;2023-04-24T03:03:44;12.02;;;5.20;;
18820;SDS011;9539;59.332;18.034;2023-04-24T03:06:06;10.63;;;4.43;;
18820;SDS011;9539;59.332;18.034;2023-04-24T03:08:28;12.02;;;5.28;;
18820;SDS011;9539;59.332;18.034;2023-04-24T03:10:49;12.45;;;4.93;;
18820;SDS011;9539;59.332;18.034;2023-04-24T03:13:11;11.82;;;4.78;;
18820;SDS011;9539;59.332;18.034;2023-04-24T03:15:32;8.35;;;4.40;;
18820;SDS011;9539;59.332;18.034;2023-04-24T03:17:54;10.55;;;4.50;;
18820;SDS011;9539;59.332;18.034;2023-04-24T03:20:17;11.50;;;4.18;;
18820;SDS011;9539;59.332;18.034;2023-04-24T03:22:39;9.07;;;4.35;;
18820;SDS011;9539;59.332;18.034;2023-04-24T03:25:00;9.80;;;4.43;;
18820;SDS011;9539;59.332;18.034;2023-04-24T03:27:22;10.20;;;4.28;;
18820;SDS011;9539;59.332;18.034;2023-04-24T03:29:44;11.88;;;5.32;;
18820;SDS011;9539;59.332;18.034;2023-04-24T03:32:05;12.15;;;4.70;;
18820;SDS011;9539;59.332;18.034;2023-04-24T03:34:27;13.77;;;5.35;;
18820;SDS011;9539;59.332;18.034;2023-04-24T03:36:50;16.13;;;5.90;;
18820;SDS011;9539;59.332;18.034;2023-04-24T03:39:12;11.38;;;4.30;;
18820;SDS011;9539;59.332;18.034;2023-04-24T03:41:34;14.45;;;5.20;;
18820;SDS011;9539;59.332;18.034;2023-04-24T03:43:56;11.40;;;5.18;;
18820;SDS011;9539;59.332;18.034;2023-04-24T03:46:17;12.43;;;4.88;;
18820;SDS011;9539;59.332;18.034;2023-04-24T03:48:39;12.30;;;5.47;;
18820;SDS011;9539;59.332;18.034;2023-04-24T03:51:00;10.48;;;5.03;;
18820;SDS011;9539;59.332;18.034;2023-04-24T03:53:24;13.23;;;5.65;;
18820;SDS011;9539;59.332;18.034;2023-04-24T03:55:46;12.82;;;5.25;;
18820;SDS011;9539;59.332;18.034;2023-04-24T03:58:08;10.75;;;4.45;;
18820;SDS011;9539;59.332;18.034;2023-04-24T04:00:30;11.10;;;4.80;;
18820;SDS011;9539;59.332;18.034;2023-04-24T04:02:53;14.18;;;5.30;;
18820;SDS011;9539;59.332;18.034;2023-04-24T04:05:15;12.65;;;5.20;;
18820;SDS011;9539;59.332;18.034;2023-04-24T04:07:36;13.48;;;5.30;;
18820;SDS011;9539;59.332;18.034;2023-04-24T04:09:59;11.65;;;5.32;;
18820;SDS011;9539;59.332;18.034;2023-04-24T04:12:21;14.07;;;5.50;;
18820;SDS011;9539;59.332;18.034;2023-04-24T04:14:43;11.18;;;4.90;;
18820;SDS011;9539;59.332;18.034;2023-04-24T04:17:04;12.65;;;5.18;;
18820;SDS011;9539;59.332;18.034;2023-04-24T04:19:26;11.20;;;5.05;;
18820;SDS011;9539;59.332;18.034;2023-04-24T04:21:47;8.50;;;4.18;;
18820;SDS011;9539;59.332;18.034;2023-04-24T04:24:13;11.93;;;4.20;;
18820;SDS011;9539;59.332;18.034;2023-04-24T04:26:36;13.60;;;5.00;;
18820;SDS011;9539;59.332;18.034;2023-04-24T04:28:57;11.60;;;4.97;;
18820;SDS011;9539;59.332;18.034;2023-04-24T04:31:21;8.30;;;4.72;;
18820;SDS011;9539;59.332;18.034;2023-04-24T04:33:43;13.30;;;4.97;;
18820;SDS011;9539;59.332;18.034;2023-04-24T04:36:05;12.95;;;5.88;;
18820;SDS011;9539;59.332;18.034;2023-04-24T04:38:26;13.68;;;6.47;;
18820;SDS011;9539;59.332;18.034;2023-04-24T04:40:50;12.68;;;5.47;;
18820;SDS011;9539;59.332;18.034;2023-04-24T04:43:13;13.20;;;4.70;;
18820;SDS011;9539;59.332;18.034;2023-04-24T04:45:35;12.20;;;4.90;;
18820;SDS011;9539;59.332;18.034;2023-04-24T04:47:57;13.35;;;5.40;;
18820;SDS011;9539;59.332;18.034;2023-04-24T04:50:20;13.20;;;5.43;;
18820;SDS011;9539;59.332;18.034;2023-04-24T04:52:43;12.45;;;5.68;;
18820;SDS011;9539;59.332;18.034;2023-04-24T04:55:05;15.13;;;5.75;;
18820;SDS011;9539;59.332;18.034;2023-04-24T04:57:26;12.57;;;5.85;;
18820;SDS011;9539;59.332;18.034;2023-04-24T04:59:49;11.38;;;5.75;;
18820;SDS011;9539;59.332;18.034;2023-04-24T05:02:11;12.38;;;5.30;;
18820;SDS011;9539;59.332;18.034;2023-04-24T05:04:33;10.90;;;5.22;;
18820;SDS011;9539;59.332;18.034;2023-04-24T05:06:54;13.50;;;5.70;;
18820;SDS011;9539;59.332;18.034;2023-04-24T05:09:16;12.82;;;5.70;;
18820;SDS011;9539;59.332;18.034;2023-04-24T05:11:38;12.95;;;5.57;;
18820;SDS011;9539;59.332;18.034;2023-04-24T05:13:59;14.95;;;5.43;;
18820;SDS011;9539;59.332;18.034;2023-04-24T05:16:22;16.38;;;5.78;;
18820;SDS011;9539;59.332;18.034;2023-04-24T05:18:44;12.55;;;5.78;;
18820;SDS011;9539;59.332;18.034;2023-04-24T05:21:06;11.73;;;5.15;;
18820;SDS011;9539;59.332;18.034;2023-04-24T05:23:27;12.68;;;5.18;;
18820;SDS011;9539;59.332;18.034;2023-04-24T05:25:49;15.63;;;5.88;;
18820;SDS011;9539;59.332;18.034;2023-04-24T05:28:10;10.70;;;5.25;;
18820;SDS011;9539;59.332;18.034;2023-04-24T05:30:32;10.20;;;5.40;;
18820;SDS011;9539;59.332;18.034;2023-04-24T05:32:55;11.52;;;4.95;;
18820;SDS011;9539;59.332;18.034;2023-04-24T05:35:17;10.23;;;4.63;;
18820;SDS011;9539;59.332;18.034;2023-04-24T05:37:38;10.45;;;4.55;;
18820;SDS011;9539;59.332;18.034;2023-04-24T05:40:00;9.27;;;4.95;;
18820;SDS011;9539;59.332;18.034;2023-04-24T05:42:22;8.27;;;4.75;;
18820;SDS011;9539;59.332;18.034;2023-04-24T05:44:43;8.25;;;4.47;;
18820;SDS011;9539;59.332;18.034;2023-04-24T05:47:05;8.48;;;4.45;;
18820;SDS011;9539;59.332;18.034;2023-04-24T05:49:28;11.23;;;5.03;;
18820;SDS011;9539;59.332;18.034;2023-04-24T05:51:49;10.27;;;4.82;;
18820;SDS011;9539;59.332;18.034;2023-04-24T05:54:11;9.65;;;4.60;;
18820;SDS011;9539;59.332;18.034;2023-04-24T05:56:33;9.70;;;4.30;;
18820;SDS011;9539;59.332;18.034;2023-04-24T05:58:54;8.52;;;3.88;;
18820;SDS011;9539;59.332;18.034;2023-04-24T06:01:16;8.25;;;3.88;;
18820;SDS011;9539;59.332;18.034;2023-04-24T06:03:38;6.38;;;3.47;;
18820;SDS011;9539;59.332;18.034;2023-04-24T06:06:01;7.60;;;3.70;;
18820;SDS011;9539;59.332;18.034;2023-04-24T06:08:23;9.73;;;3.47;;
18820;SDS011;9539;59.332;18.034;2023-04-24T06:10:45;7.50;;;2.90;;
18820;SDS011;9539;59.332;18.034;2023-04-24T06:13:07;8.85;;;3.13;;
18820;SDS011;9539;59.332;18.034;2023-04-24T06:15:28;5.25;;;2.95;;
18820;SDS011;9539;59.332;18.034;2023-04-24T06:17:51;6.78;;;3.80;;
18820;SDS011;9539;59.332;18.034;2023-04-24T06:20:12;5.35;;;3.17;;
18820;SDS011;9539;59.332;18.034;2023-04-24T06:22:35;9.55;;;3.53;;
18820;SDS011;9539;59.332;18.034;2023-04-24T06:24:57;5.15;;;3.13;;
18820;SDS011;9539;59.332;18.034;2023-04-24T06:27:18;8.95;;;3.55;;
18820;SDS011;9539;59.332;18.034;2023-04-24T06:29:40;6.75;;;3.25;;
18820;SDS011;9539;59.332;18.034;2023-04-24T06:32:02;8.05;;;3.83;;
18820;SDS011;9539;59.332;18.034;2023-04-24T06:34:23;8.35;;;3.25;;
18820;SDS011;9539;59.332;18.034;2023-04-24T06:36:46;7.47;;;3.58;;
18820;SDS011;9539;59.332;18.034;2023-04-24T06:39:09;6.93;;;3.50;;
18820;SDS011;9539;59.332;18.034;2023-04-24T06:41:30;8.85;;;3.42;;
18820;SDS011;9539;59.332;18.034;2023-04-24T06:43:52;6.20;;;3.05;;
18820;SDS011;9539;59.332;18.034;2023-04-24T06:46:14;6.70;;;2.90;;
18820;SDS011;9539;59.332;18.034;2023-04-24T06:48:35;5.32;;;2.67;;
18820;SDS011;9539;59.332;18.034;2023-04-24T06:50:57;5.95;;;2.85;;
18820;SDS011;9539;59.332;18.034;2023-04-24T06:53:18;5.05;;;2.80;;
18820;SDS011;9539;59.332;18.034;2023-04-24T06:55:42;7.25;;;3.65;;
18820;SDS011;9539;59.332;18.034;2023-04-24T06:58:04;5.00;;;3.10;;
18820;SDS011;9539;59.332;18.034;2023-04-24T07:00:26;5.30;;;3.10;;
18820;SDS011;9539;59.332;18.034;2023-04-24T07:02:48;5.70;;;2.70;;
18820;SDS011;9539;59.332;18.034;2023-04-24T07:05:10;5.22;;;2.58;;
18820;SDS011;9539;59.332;18.034;2023-04-24T07:07:32;7.70;;;2.90;;
18820;SDS011;9539;59.332;18.034;2023-04-24T07:09:54;4.15;;;2.80;;
18820;SDS011;9539;59.332;18.034;2023-04-24T07:12:17;4.68;;;3.10;;
18820;SDS011;9539;59.332;18.034;2023-04-24T07:14:41;18.60;;;3.92;;
18820;SDS011;9539;59.332;18.034;2023-04-24T07:17:02;5.10;;;3.53;;
18820;SDS011;9539;59.332;18.034;2023-04-24T07:19:24;5.38;;;2.75;;
18820;SDS011;9539;59.332;18.034;2023-04-24T07:21:46;4.57;;;2.83;;
18820;SDS011;9539;59.332;18.034;2023-04-24T07:24:08;4.43;;;3.10;;
18820;SDS011;9539;59.332;18.034;2023-04-24T07:26:31;5.25;;;2.67;;
18820;SDS011;9539;59.332;18.034;2023-04-24T07:28:54;6.28;;;3.33;;
18820;SDS011;9539;59.332;18.034;2023-04-24T07:31:16;4.95;;;3.03;;
18820;SDS011;9539;59.332;18.034;2023-04-24T07:33:38;5.40;;;3.10;;
18820;SDS011;9539;59.332;18.034;2023-04-24T07:35:59;7.13;;;3.20;;
18820;SDS011;9539;59.332;18.034;2023-04-24T07:38:21;4.72;;;2.75;;
18820;SDS011;9539;59.332;18.034;2023-04-24T07:40:43;5.57;;;3.17;;
18820;SDS011;9539;59.332;18.034;2023-04-24T07:43:04;3.63;;;2.70;;
18820;SDS011;9539;59.332;18.034;2023-04-24T07:45:27;4.50;;;2.60;;
18820;SDS011;9539;59.332;18.034;2023-04-24T07:47:49;3.28;;;2.08;;
18820;SDS011;9539;59.332;18.034;2023-04-24T07:50:11;6.05;;;2.47;;
18820;SDS011;9539;59.332;18.034;2023-04-24T07:52:33;3.15;;;2.25;;
18820;SDS011;9539;59.332;18.034;2023-04-24T07:54:55;4.25;;;2.90;;
18820;SDS011;9539;59.332;18.034;2023-04-24T07:57:18;4.72;;;2.70;;
18820;SDS011;9539;59.332;18.034;2023-04-24T07:59:40;5.68;;;2.20;;
18820;SDS011;9539;59.332;18.034;2023-04-24T08:02:03;3.53;;;2.20;;
18820;SDS011;9539;59.332;18.034;2023-04-24T08:04:24;6.57;;;2.92;;
18820;SDS011;9539;59.332;18.034;2023-04-24T08:06:47;6.47;;;2.30;;
18820;SDS011;9539;59.332;18.034;2023-04-24T08:09:08;3.78;;;2.20;;
18820;SDS011;9539;59.332;18.034;2023-04-24T08:11:30;4.55;;;2.42;;
18820;SDS011;9539;59.332;18.034;2023-04-24T08:13:52;3.40;;;2.35;;
18820;SDS011;9539;59.332;18.034;2023-04-24T08:16:14;3.20;;;2.08;;
18820;SDS011;9539;59.332;18.034;2023-04-24T08:18:37;8.20;;;2.40;;
18820;SDS011;9539;59.332;18.034;2023-04-24T08:20:59;4.90;;;2.30;;
18820;SDS011;9539;59.332;18.034;2023-04-24T08:23:21;4.28;;;2.88;;
18820;SDS011;9539;59.332;18.034;2023-04-24T08:25:43;3.00;;;2.47;;
18820;SDS011;9539;59.332;18.034;2023-04-24T08:28:05;3.63;;;2.92;;
18820;SDS011;9539;59.332;18.034;2023-04-24T08:30:27;4.38;;;2.83;;
18820;SDS011;9539;59.332;18.034;2023-04-24T08:32:48;4.45;;;3.00;;
18820;SDS011;9539;59.332;18.034;2023-04-24T08:35:11;3.33;;;2.10;;
18820;SDS011;9539;59.332;18.034;2023-04-24T08:37:33;3.75;;;2.35;;
18820;SDS011;9539;59.332;18.034;2023-04-24T08:39:54;3.78;;;2.08;;
18820;SDS011;9539;59.332;18.034;2023-04-24T08:42:16;2.78;;;2.15;;
18820;SDS011;9539;59.332;18.034;2023-04-24T08:44:38;3.17;;;2.65;;
18820;SDS011;9539;59.332;18.034;2023-04-24T08:47:00;5.68;;;2.88;;
18820;SDS011;9539;59.332;18.034;2023-04-24T08:49:23;3.80;;;2.90;;
18820;SDS011;9539;59.332;18.034;2023-04-24T08:51:46;4.88;;;2.72;;
18820;SDS011;9539;59.332;18.034;2023-04-24T08:54:09;4.13;;;2.58;;
18820;SDS011;9539;59.332;18.034;2023-04-24T08:56:31;4.10;;;2.28;;
18820;SDS011;9539;59.332;18.034;2023-04-24T08:58:54;3.28;;;2.53;;
18820;SDS011;9539;59.332;18.034;2023-04-24T09:01:16;4.05;;;2.20;;
18820;SDS011;9539;59.332;18.034;2023-04-24T09:03:38;4.05;;;2.35;;
18820;SDS011;9539;59.332;18.034;2023-04-24T09:06:00;5.07;;;2.50;;
18820;SDS011;9539;59.332;18.034;2023-04-24T09:08:24;2.75;;;2.38;;
18820;SDS011;9539;59.332;18.034;2023-04-24T09:10:46;2.45;;;1.98;;
18820;SDS011;9539;59.332;18.034;2023-04-24T09:13:07;3.22;;;2.20;;
18820;SDS011;9539;59.332;18.034;2023-04-24T09:15:30;2.58;;;2.10;;
18820;SDS011;9539;59.332;18.034;2023-04-24T09:17:52;2.85;;;2.47;;
18820;SDS011;9539;59.332;18.034;2023-04-24T09:20:13;2.30;;;2.10;;
18820;SDS011;9539;59.332;18.034;2023-04-24T09:22:35;5.05;;;2.70;;
18820;SDS011;9539;59.332;18.034;2023-04-24T09:25:03;4.13;;;2.67;;
18820;SDS011;9539;59.332;18.034;2023-04-24T09:27:27;3.60;;;3.30;;
18820;SDS011;9539;59.332;18.034;2023-04-24T09:29:55;7.85;;;3.00;;
18820;SDS011;9539;59.332;18.034;2023-04-24T09:32:20;2.30;;;2.10;;
18820;SDS011;9539;59.332;18.034;2023-04-24T09:34:42;5.03;;;2.70;;
18820;SDS011;9539;59.332;18.034;2023-04-24T09:37:04;5.25;;;2.60;;
18820;SDS011;9539;59.332;18.034;2023-04-24T09:39:25;2.88;;;2.67;;
18820;SDS011;9539;59.332;18.034;2023-04-24T09:41:49;3.72;;;3.05;;
18820;SDS011;9539;59.332;18.034;2023-04-24T09:44:12;3.10;;;2.80;;
18820;SDS011;9539;59.332;18.034;2023-04-24T09:46:33;6.68;;;2.70;;
18820;SDS011;9539;59.332;18.034;2023-04-24T09:48:55;4.85;;;2.65;;
18820;SDS011;9539;59.332;18.034;2023-04-24T09:51:17;2.65;;;2.42;;
18820;SDS011;9539;59.332;18.034;2023-04-24T09:53:54;3.20;;;2.40;;
18820;SDS011;9539;59.332;18.034;2023-04-24T09:56:15;6.50;;;3.08;;
18820;SDS011;9539;59.332;18.034;2023-04-24T09:58:38;6.15;;;2.70;;
18820;SDS011;9539;59.332;18.034;2023-04-24T10:01:00;4.40;;;3.00;;
18820;SDS011;9539;59.332;18.034;2023-04-24T10:03:23;6.10;;;3.10;;
18820;SDS011;9539;59.332;18.034;2023-04-24T10:05:46;3.63;;;2.97;;
18820;SDS011;9539;59.332;18.034;2023-04-24T10:08:08;4.70;;;2.78;;
18820;SDS011;9539;59.332;18.034;2023-04-24T10:10:30;3.42;;;2.47;;
18820;SDS011;9539;59.332;18.034;2023-04-24T10:12:52;6.57;;;2.88;;
18820;SDS011;9539;59.332;18.034;2023-04-24T10:15:15;3.63;;;2.80;;
18820;SDS011;9539;59.332;18.034;2023-04-24T10:17:40;6.35;;;3.22;;
18820;SDS011;9539;59.332;18.034;2023-04-24T10:20:02;4.50;;;2.95;;
18820;SDS011;9539;59.332;18.034;2023-04-24T10:22:24;5.25;;;2.70;;
18820;SDS011;9539;59.332;18.034;2023-04-24T10:24:45;3.40;;;2.70;;
18820;SDS011;9539;59.332;18.034;2023-04-24T10:27:08;5.50;;;2.90;;
18820;SDS011;9539;59.332;18.034;2023-04-24T10:29:30;3.13;;;2.60;;
18820;SDS011;9539;59.332;18.034;2023-04-24T10:31:54;7.20;;;2.83;;
18820;SDS011;9539;59.332;18.034;2023-04-24T10:34:16;4.47;;;2.80;;
18820;SDS011;9539;59.332;18.034;2023-04-24T10:36:43;6.60;;;3.10;;
18820;SDS011;9539;59.332;18.034;2023-04-24T10:39:07;5.13;;;3.00;;
18820;SDS011;9539;59.332;18.034;2023-04-24T10:41:30;5.18;;;3.10;;
18820;SDS011;9539;59.332;18.034;2023-04-24T10:44:03;4.90;;;3.20;;
18820;SDS011;9539;59.332;18.034;2023-04-24T10:46:25;6.80;;;3.45;;
18820;SDS011;9539;59.332;18.034;2023-04-24T10:48:53;4.55;;;3.08;;
18820;SDS011;9539;59.332;18.034;2023-04-24T10:51:15;3.42;;;3.13;;
18820;SDS011;9539;59.332;18.034;2023-04-24T10:53:37;5.03;;;3.00;;
18820;SDS011;9539;59.332;18.034;2023-04-24T10:56:00;6.82;;;3.13;;
18820;SDS011;9539;59.332;18.034;2023-04-24T10:58:25;3.70;;;2.90;;
18820;SDS011;9539;59.332;18.034;2023-04-24T11:00:57;5.43;;;3.20;;
18820;SDS011;9539;59.332;18.034;2023-04-24T11:03:23;5.13;;;2.95;;
18820;SDS011;9539;59.332;18.034;2023-04-24T11:05:50;5.00;;;2.97;;
18820;SDS011;9539;59.332;18.034;2023-04-24T11:08:13;8.50;;;3.15;;
18820;SDS011;9539;59.332;18.034;2023-04-24T11:10:37;4.80;;;2.88;;
18820;SDS011;9539;59.332;18.034;2023-04-24T11:12:59;3.05;;;2.60;;
18820;SDS011;9539;59.332;18.034;2023-04-24T11:15:23;6.78;;;3.15;;
18820;SDS011;9539;59.332;18.034;2023-04-24T11:17:44;6.07;;;2.90;;
18820;SDS011;9539;59.332;18.034;2023-04-24T11:20:07;4.72;;;2.92;;
18820;SDS011;9539;59.332;18.034;2023-04-24T11:22:31;5.10;;;2.78;;
18820;SDS011;9539;59.332;18.034;2023-04-24T11:24:54;3.58;;;2.25;;
18820;SDS011;9539;59.332;18.034;2023-04-24T11:27:16;4.28;;;2.80;;
18820;SDS011;9539;59.332;18.034;2023-04-24T11:29:40;6.32;;;2.60;;
18820;SDS011;9539;59.332;18.034;2023-04-24T11:32:11;6.72;;;3.00;;
18820;SDS011;9539;59.332;18.034;2023-04-24T11:34:36;6.50;;;3.00;;
18820;SDS011;9539;59.332;18.034;2023-04-24T11:36:59;4.13;;;2.50;;
18820;SDS011;9539;59.332;18.034;2023-04-24T11:39:23;5.43;;;2.78;;
18820;SDS011;9539;59.332;18.034;2023-04-24T11:41:44;3.75;;;2.65;;
18820;SDS011;9539;59.332;18.034;2023-04-24T11:44:08;4.90;;;3.10;;
18820;SDS011;9539;59.332;18.034;2023-04-24T11:46:30;3.90;;;2.97;;
18820;SDS011;9539;59.332;18.034;2023-04-24T11:48:52;4.53;;;3.05;;
18820;SDS011;9539;59.332;18.034;2023-04-24T11:51:14;8.20;;;3.63;;
18820;SDS011;9539;59.332;18.034;2023-04-24T11:53:36;6.75;;;3.05;;
18820;SDS011;9539;59.332;18.034;2023-04-24T11:56:03;5.30;;;3.70;;
18820;SDS011;9539;59.332;18.034;2023-04-24T11:58:25;7.10;;;3.70;;
18820;SDS011;9539;59.332;18.034;2023-04-24T12:00:54;4.60;;;3.60;;
18820;SDS011;9539;59.332;18.034;2023-04-24T12:03:16;5.70;;;3.60;;
18820;SDS011;9539;59.332;18.034;2023-04-24T12:05:38;5.65;;;3.90;;
18820;SDS011;9539;59.332;18.034;2023-04-24T12:08:00;5.07;;;3.40;;
18820;SDS011;9539;59.332;18.034;2023-04-24T12:10:22;4.97;;;3.42;;
18820;SDS011;9539;59.332;18.034;2023-04-24T12:12:45;4.72;;;3.33;;
18820;SDS011;9539;59.332;18.034;2023-04-24T12:15:08;4.68;;;3.40;;
18820;SDS011;9539;59.332;18.034;2023-04-24T12:17:30;7.25;;;3.20;;
18820;SDS011;9539;59.332;18.034;2023-04-24T12:19:52;6.90;;;3.70;;
18820;SDS011;9539;59.332;18.034;2023-04-24T12:22:13;7.20;;;3.47;;
18820;SDS011;9539;59.332;18.034;2023-04-24T12:24:54;5.32;;;4.10;;
18820;SDS011;9539;59.332;18.034;2023-04-24T12:27:19;8.23;;;4.22;;
18820;SDS011;9539;59.332;18.034;2023-04-24T12:29:52;7.95;;;3.72;;
18820;SDS011;9539;59.332;18.034;2023-04-24T12:32:15;9.80;;;3.67;;
18820;SDS011;9539;59.332;18.034;2023-04-24T12:34:37;7.90;;;3.38;;
18820;SDS011;9539;59.332;18.034;2023-04-24T12:37:09;9.63;;;4.00;;
18820;SDS011;9539;59.332;18.034;2023-04-24T12:39:30;7.35;;;4.18;;
18820;SDS011;9539;59.332;18.034;2023-04-24T12:41:55;5.43;;;3.60;;
18820;SDS011;9539;59.332;18.034;2023-04-24T12:44:18;4.95;;;3.35;;
18820;SDS011;9539;59.332;18.034;2023-04-24T12:46:41;4.93;;;3.33;;
18820;SDS011;9539;59.332;18.034;2023-04-24T12:49:03;7.93;;;3.70;;
18820;SDS011;9539;59.332;18.034;2023-04-24T12:51:25;5.20;;;3.92;;
18820;SDS011;9539;59.332;18.034;2023-04-24T12:53:46;5.13;;;3.70;;
18820;SDS011;9539;59.332;18.034;2023-04-24T12:56:08;8.85;;;4.20;;
18820;SDS011;9539;59.332;18.034;2023-04-24T12:58:30;5.28;;;3.50;;
18820;SDS011;9539;59.332;18.034;2023-04-24T13:00:51;5.95;;;3.78;;
18820;SDS011;9539;59.332;18.034;2023-04-24T13:03:14;7.97;;;4.25;;
18820;SDS011;9539;59.332;18.034;2023-04-24T13:05:36;10.57;;;4.80;;
18820;SDS011;9539;59.332;18.034;2023-04-24T13:07:57;6.05;;;4.25;;
18820;SDS011;9539;59.332;18.034;2023-04-24T13:10:19;8.05;;;4.15;;
18820;SDS011;9539;59.332;18.034;2023-04-24T13:12:41;9.07;;;4.13;;
18820;SDS011;9539;59.332;18.034;2023-04-24T13:15:06;7.20;;;4.38;;
18820;SDS011;9539;59.332;18.034;2023-04-24T13:17:27;7.97;;;4.07;;
18820;SDS011;9539;59.332;18.034;2023-04-24T13:19:51;4.88;;;3.60;;
18820;SDS011;9539;59.332;18.034;2023-04-24T13:22:12;8.18;;;4.72;;
18820;SDS011;9539;59.332;18.034;2023-04-24T13:24:34;7.78;;;4.25;;
18820;SDS011;9539;59.332;18.034;2023-04-24T13:26:56;6.40;;;3.78;;
18820;SDS011;9539;59.332;18.034;2023-04-24T13:29:17;6.28;;;4.10;;
18820;SDS011;9539;59.332;18.034;2023-04-24T13:31:39;8.55;;;4.07;;
18820;SDS011;9539;59.332;18.034;2023-04-24T13:34:02;7.20;;;4.15;;
18820;SDS011;9539;59.332;18.034;2023-04-24T13:36:25;7.90;;;3.85;;
18820;SDS011;9539;59.332;18.034;2023-04-24T13:38:47;7.15;;;3.90;;
18820;SDS011;9539;59.332;18.034;2023-04-24T13:41:08;9.23;;;4.32;;
18820;SDS011;9539;59.332;18.034;2023-04-24T13:43:30;5.10;;;3.25;;
18820;SDS011;9539;59.332;18.034;2023-04-24T13:45:52;6.25;;;3.55;;
18820;SDS011;9539;59.332;18.034;2023-04-24T13:48:15;7.03;;;3.67;;
18820;SDS011;9539;59.332;18.034;2023-04-24T13:50:37;5.35;;;3.45;;
18820;SDS011;9539;59.332;18.034;2023-04-24T13:53:00;5.90;;;4.18;;
18820;SDS011;9539;59.332;18.034;2023-04-24T13:55:21;10.90;;;4.10;;
18820;SDS011;9539;59.332;18.034;2023-04-24T13:57:43;9.82;;;4.00;;
18820;SDS011;9539;59.332;18.034;2023-04-24T14:00:05;8.75;;;3.78;;
18820;SDS011;9539;59.332;18.034;2023-04-24T14:02:30;6.78;;;4.10;;
18820;SDS011;9539;59.332;18.034;2023-04-24T14:04:52;6.50;;;3.92;;
18820;SDS011;9539;59.332;18.034;2023-04-24T14:07:13;6.38;;;3.78;;
18820;SDS011;9539;59.332;18.034;2023-04-24T14:09:36;6.60;;;4.22;;
18820;SDS011;9539;59.332;18.034;2023-04-24T14:11:58;5.07;;;3.30;;
18820;SDS011;9539;59.332;18.034;2023-04-24T14:14:21;5.93;;;4.20;;
18820;SDS011;9539;59.332;18.034;2023-04-24T14:16:42;5.70;;;4.05;;